sensor_id;sensor_type;location;lat;lon;timestamp;pressure;altitude;pressure_sealevel;temperature;humidity
57192;BME280;43052;52.588;13.396;2022-12-07T00:01:21;100877.47;;;3.51;77.04
57192;BME280;43052;52.588;13.396;2022-12-07T00:03:48;100864.56;;;3.51;77.08
57192;BME280;43052;52.588;13.396;2022-12-07T00:06:15;100871.22;;;3.41;77.11
57192;BME280;43052;52.588;13.396;2022-12-07T00:08:41;100872.00;;;3.38;77.00
57192;BME280;43052;52.588;13.396;2022-12-07T00:11:09;100864.97;;;3.33;77.24
57192;BME280;43052;52.588;13.396;2022-12-07T00:13:35;100857.09;;;3.28;77.00
57192;BME280;43052;52.588;13.396;2022-12-07T00:16:02;100862.88;;;3.19;76.59
57192;BME280;43052;52.588;13.396;2022-12-07T00:18:28;100855.22;;;3.22;76.79
57192;BME280;43052;52.588;13.396;2022-12-07T00:20:53;100866.38;;;3.20;76.69
57192;BME280;43052;52.588;13.396;2022-12-07T00:23:23;100851.56;;;3.14;76.63
57192;BME280;43052;52.588;13.396;2022-12-07T00:25:48;100856.72;;;3.12;77.10
57192;BME280;43052;52.588;13.396;2022-12-07T00:28:14;100852.41;;;3.13;76.84
57192;BME280;43052;52.588;13.396;2022-12-07T00:30:39;100849.00;;;3.16;77.06
57192;BME280;43052;52.588;13.396;2022-12-07T00:33:04;100847.25;;;3.14;76.72
57192;BME280;43052;52.588;13.396;2022-12-07T00:35:29;100843.84;;;3.16;76.69
57192;BME280;43052;52.588;13.396;2022-12-07T00:37:55;100846.53;;;3.19;76.69
57192;BME280;43052;52.588;13.396;2022-12-07T00:40:20;100843.09;;;3.20;76.66
57192;BME280;43052;52.588;13.396;2022-12-07T00:42:45;100841.59;;;3.28;76.62
57192;BME280;43052;52.588;13.396;2022-12-07T00:45:10;100842.41;;;3.25;76.62
57192;BME280;43052;52.588;13.396;2022-12-07T00:47:36;100841.34;;;3.19;76.51
57192;BME280;43052;52.588;13.396;2022-12-07T00:50:01;100834.34;;;3.14;76.33
57192;BME280;43052;52.588;13.396;2022-12-07T00:52:26;100834.34;;;3.14;76.29
57192;BME280;43052;52.588;13.396;2022-12-07T00:54:52;100837.03;;;3.19;76.10
57192;BME280;43052;52.588;13.396;2022-12-07T00:57:17;100835.28;;;3.18;75.74
57192;BME280;43052;52.588;13.396;2022-12-07T00:59:42;100830.81;;;3.11;75.92
57192;BME280;43052;52.588;13.396;2022-12-07T01:02:07;100836.44;;;2.96;76.05
57192;BME280;43052;52.588;13.396;2022-12-07T01:04:34;100829.19;;;2.82;76.06
57192;BME280;43052;52.588;13.396;2022-12-07T01:06:59;100829.63;;;2.66;76.06
57192;BME280;43052;52.588;13.396;2022-12-07T01:09:24;100826.59;;;2.50;76.38
57192;BME280;43052;52.588;13.396;2022-12-07T01:11:49;100822.00;;;2.40;76.36
57192;BME280;43052;52.588;13.396;2022-12-07T01:14:15;100809.03;;;2.39;76.43
57192;BME280;43052;52.588;13.396;2022-12-07T01:16:40;100817.69;;;2.41;76.36
57192;BME280;43052;52.588;13.396;2022-12-07T01:19:05;100811.94;;;2.49;76.54
57192;BME280;43052;52.588;13.396;2022-12-07T01:21:33;100813.97;;;2.60;76.28
57192;BME280;43052;52.588;13.396;2022-12-07T01:24:01;100814.97;;;2.66;76.25
57192;BME280;43052;52.588;13.396;2022-12-07T01:26:26;100803.94;;;2.72;76.04
57192;BME280;43052;52.588;13.396;2022-12-07T01:28:52;100810.06;;;2.76;75.76
57192;BME280;43052;52.588;13.396;2022-12-07T01:31:24;100801.47;;;2.75;75.83
57192;BME280;43052;52.588;13.396;2022-12-07T01:33:52;100804.91;;;2.76;75.77
57192;BME280;43052;52.588;13.396;2022-12-07T01:36:25;100801.47;;;2.75;76.00
57192;BME280;43052;52.588;13.396;2022-12-07T01:38:54;100804.03;;;2.75;75.80
57192;BME280;43052;52.588;13.396;2022-12-07T01:41:21;100804.91;;;2.76;75.85
57192;BME280;43052;52.588;13.396;2022-12-07T01:44:07;100805.59;;;2.70;75.90
57192;BME280;43052;52.588;13.396;2022-12-07T01:46:33;100807.44;;;2.73;75.76
57192;BME280;43052;52.588;13.396;2022-12-07T01:48:58;100798.06;;;2.76;75.89
57192;BME280;43052;52.588;13.396;2022-12-07T01:51:25;100793.78;;;2.78;75.68
57192;BME280;43052;52.588;13.396;2022-12-07T01:53:51;100792.13;;;2.80;75.70
57192;BME280;43052;52.588;13.396;2022-12-07T01:56:20;100791.28;;;2.81;75.44
57192;BME280;43052;52.588;13.396;2022-12-07T01:58:49;100782.00;;;2.88;75.53
57192;BME280;43052;52.588;13.396;2022-12-07T02:01:14;100775.19;;;2.92;75.49
57192;BME280;43052;52.588;13.396;2022-12-07T02:03:42;100775.31;;;2.96;75.32
57192;BME280;43052;52.588;13.396;2022-12-07T02:06:09;100771.69;;;2.90;75.41
57192;BME280;43052;52.588;13.396;2022-12-07T02:08:36;100771.69;;;2.90;75.12
57192;BME280;43052;52.588;13.396;2022-12-07T02:11:03;100772.53;;;2.89;74.93
57192;BME280;43052;52.588;13.396;2022-12-07T02:13:31;100770.63;;;2.81;74.87
57192;BME280;43052;52.588;13.396;2022-12-07T02:16:25;100776.56;;;2.77;75.19
57192;BME280;43052;52.588;13.396;2022-12-07T02:19:07;100768.72;;;2.74;75.04
57192;BME280;43052;52.588;13.396;2022-12-07T02:21:58;100759.09;;;2.69;75.20
57192;BME280;43052;52.588;13.396;2022-12-07T02:24:52;100763.19;;;2.60;75.44
57192;BME280;43052;52.588;13.396;2022-12-07T02:27:36;100760.47;;;2.56;75.37
57192;BME280;43052;52.588;13.396;2022-12-07T02:30:08;100755.16;;;2.49;75.45
57192;BME280;43052;52.588;13.396;2022-12-07T02:32:42;100755.16;;;2.49;75.43
57192;BME280;43052;52.588;13.396;2022-12-07T02:35:15;100754.13;;;2.44;75.50
57192;BME280;43052;52.588;13.396;2022-12-07T02:38:05;100745.28;;;2.34;75.42
57192;BME280;43052;52.588;13.396;2022-12-07T02:40:42;100740.84;;;2.30;75.57
57192;BME280;43052;52.588;13.396;2022-12-07T02:43:19;100743.28;;;2.26;75.38
57192;BME280;43052;52.588;13.396;2022-12-07T02:45:50;100738.19;;;2.27;75.12
57192;BME280;43052;52.588;13.396;2022-12-07T02:48:17;100735.50;;;2.24;75.00
57192;BME280;43052;52.588;13.396;2022-12-07T02:50:51;100726.84;;;2.22;75.30
57192;BME280;43052;52.588;13.396;2022-12-07T02:53:36;100723.50;;;2.25;75.21
57192;BME280;43052;52.588;13.396;2022-12-07T02:56:43;100722.78;;;2.30;75.18
57192;BME280;43052;52.588;13.396;2022-12-07T03:02:15;100719.34;;;2.30;74.88
57192;BME280;43052;52.588;13.396;2022-12-07T03:10:11;100700.44;;;2.31;75.16
57192;BME280;43052;52.588;13.396;2022-12-07T03:13:02;100697.03;;;2.32;75.17
57192;BME280;43052;52.588;13.396;2022-12-07T03:15:35;100693.50;;;2.28;75.14
57192;BME280;43052;52.588;13.396;2022-12-07T03:18:05;100689.03;;;2.23;75.18
57192;BME280;43052;52.588;13.396;2022-12-07T03:20:34;100691.56;;;2.21;75.44
57192;BME280;43052;52.588;13.396;2022-12-07T03:23:04;100684.72;;;2.23;75.24
57192;BME280;43052;52.588;13.396;2022-12-07T03:25:29;100679.69;;;2.28;75.46
57192;BME280;43052;52.588;13.396;2022-12-07T03:28:01;100672.09;;;2.34;75.44
57192;BME280;43052;52.588;13.396;2022-12-07T03:30:30;100675.72;;;2.39;75.07
57192;BME280;43052;52.588;13.396;2022-12-07T03:33:11;100662.81;;;2.41;75.49
57192;BME280;43052;52.588;13.396;2022-12-07T03:35:45;100657.00;;;2.48;75.51
57192;BME280;43052;52.588;13.396;2022-12-07T03:38:24;100660.63;;;2.56;75.50
57192;BME280;43052;52.588;13.396;2022-12-07T03:41:09;100656.56;;;2.64;75.26
57192;BME280;43052;52.588;13.396;2022-12-07T03:43:37;100644.59;;;2.68;75.10
57192;BME280;43052;52.588;13.396;2022-12-07T03:46:27;100645.47;;;2.69;75.17
57192;BME280;43052;52.588;13.396;2022-12-07T03:49:05;100632.66;;;2.72;75.48
57192;BME280;43052;52.588;13.396;2022-12-07T03:51:39;100626.69;;;2.76;75.32
57192;BME280;43052;52.588;13.396;2022-12-07T03:54:12;100620.81;;;2.81;75.31
57192;BME280;43052;52.588;13.396;2022-12-07T03:56:39;100626.91;;;2.84;75.54
57192;BME280;43052;52.588;13.396;2022-12-07T03:59:05;100615.78;;;2.88;75.57
57192;BME280;43052;52.588;13.396;2022-12-07T04:01:31;100616.69;;;2.90;75.62
57192;BME280;43052;52.588;13.396;2022-12-07T04:03:57;100623.66;;;2.92;75.52
57192;BME280;43052;52.588;13.396;2022-12-07T04:06:22;100615.88;;;2.92;75.48
57192;BME280;43052;52.588;13.396;2022-12-07T04:08:47;100610.78;;;2.94;75.55
57192;BME280;43052;52.588;13.396;2022-12-07T04:11:12;100602.25;;;2.98;75.55
57192;BME280;43052;52.588;13.396;2022-12-07T04:13:38;100602.19;;;2.95;75.68
57192;BME280;43052;52.588;13.396;2022-12-07T04:16:21;100601.31;;;2.94;75.61
57192;BME280;43052;52.588;13.396;2022-12-07T04:18:47;100596.97;;;2.93;75.61
57192;BME280;43052;52.588;13.396;2022-12-07T04:21:12;100598.75;;;2.96;75.88
57192;BME280;43052;52.588;13.396;2022-12-07T04:23:37;100601.41;;;2.99;75.81
57192;BME280;43052;52.588;13.396;2022-12-07T04:26:02;100590.34;;;3.05;75.81
57192;BME280;43052;52.588;13.396;2022-12-07T04:28:28;100590.44;;;3.08;76.01
57192;BME280;43052;52.588;13.396;2022-12-07T04:30:53;100579.22;;;3.07;75.63
57192;BME280;43052;52.588;13.396;2022-12-07T04:33:18;100580.03;;;3.06;75.82
57192;BME280;43052;52.588;13.396;2022-12-07T04:35:43;100580.94;;;3.07;76.03
57192;BME280;43052;52.588;13.396;2022-12-07T04:38:09;100588.69;;;3.07;76.09
57192;BME280;43052;52.588;13.396;2022-12-07T04:40:34;100573.06;;;3.02;75.85
57192;BME280;43052;52.588;13.396;2022-12-07T04:42:59;100569.66;;;3.03;75.92
57192;BME280;43052;52.588;13.396;2022-12-07T04:45:24;100586.03;;;3.05;75.84
57192;BME280;43052;52.588;13.396;2022-12-07T04:47:50;100572.28;;;3.06;75.95
57192;BME280;43052;52.588;13.396;2022-12-07T04:50:15;100576.63;;;3.07;75.99
57192;BME280;43052;52.588;13.396;2022-12-07T04:52:40;100574.03;;;3.07;76.01
57192;BME280;43052;52.588;13.396;2022-12-07T04:55:06;100572.38;;;3.09;76.18
57192;BME280;43052;52.588;13.396;2022-12-07T04:57:31;100568.13;;;3.13;76.33
57192;BME280;43052;52.588;13.396;2022-12-07T04:59:56;100565.66;;;3.18;76.26
57192;BME280;43052;52.588;13.396;2022-12-07T05:02:21;100568.25;;;3.19;76.07
57192;BME280;43052;52.588;13.396;2022-12-07T05:04:47;100558.72;;;3.17;76.18
57192;BME280;43052;52.588;13.396;2022-12-07T05:07:12;100558.75;;;3.18;76.03
57192;BME280;43052;52.588;13.396;2022-12-07T05:09:37;100551.81;;;3.16;76.13
57192;BME280;43052;52.588;13.396;2022-12-07T05:12:02;100554.47;;;3.19;76.35
57192;BME280;43052;52.588;13.396;2022-12-07T05:14:28;100549.34;;;3.20;76.48
57192;BME280;43052;52.588;13.396;2022-12-07T05:16:53;100541.75;;;3.28;76.30
57192;BME280;43052;52.588;13.396;2022-12-07T05:19:19;100543.53;;;3.32;76.41
57192;BME280;43052;52.588;13.396;2022-12-07T05:21:44;100539.22;;;3.31;76.43
57192;BME280;43052;52.588;13.396;2022-12-07T05:24:12;100542.72;;;3.33;76.20
57192;BME280;43052;52.588;13.396;2022-12-07T05:26:37;100540.22;;;3.38;76.50
57192;BME280;43052;52.588;13.396;2022-12-07T05:29:03;100545.47;;;3.41;76.14
57192;BME280;43052;52.588;13.396;2022-12-07T05:31:28;100539.47;;;3.43;76.27
57192;BME280;43052;52.588;13.396;2022-12-07T05:33:54;100534.31;;;3.45;76.47
57192;BME280;43052;52.588;13.396;2022-12-07T05:36:19;100534.31;;;3.45;76.25
57192;BME280;43052;52.588;13.396;2022-12-07T05:38:45;100542.16;;;3.48;76.55
57192;BME280;43052;52.588;13.396;2022-12-07T05:41:14;100526.53;;;3.43;76.36
57192;BME280;43052;52.588;13.396;2022-12-07T05:43:58;100525.72;;;3.44;76.49
57192;BME280;43052;52.588;13.396;2022-12-07T05:46:23;100523.88;;;3.40;76.58
57192;BME280;43052;52.588;13.396;2022-12-07T05:48:48;100520.53;;;3.43;76.74
57192;BME280;43052;52.588;13.396;2022-12-07T05:51:14;100518.78;;;3.42;76.71
57192;BME280;43052;52.588;13.396;2022-12-07T05:53:39;100512.72;;;3.41;76.85
57192;BME280;43052;52.588;13.396;2022-12-07T05:56:04;100511.91;;;3.44;76.84
57192;BME280;43052;52.588;13.396;2022-12-07T05:58:30;100509.47;;;3.52;76.87
57192;BME280;43052;52.588;13.396;2022-12-07T06:01:14;100506.97;;;3.56;76.82
57192;BME280;43052;52.588;13.396;2022-12-07T06:03:39;100500.13;;;3.58;76.92
57192;BME280;43052;52.588;13.396;2022-12-07T06:06:05;100494.16;;;3.63;76.86
57192;BME280;43052;52.588;13.396;2022-12-07T06:08:30;100495.06;;;3.65;76.60
57192;BME280;43052;52.588;13.396;2022-12-07T06:10:55;100489.97;;;3.69;76.75
57192;BME280;43052;52.588;13.396;2022-12-07T06:13:39;100485.69;;;3.71;76.54
57192;BME280;43052;52.588;13.396;2022-12-07T06:16:04;100482.28;;;3.74;76.70
57192;BME280;43052;52.588;13.396;2022-12-07T06:18:30;100480.63;;;3.78;76.50
57192;BME280;43052;52.588;13.396;2022-12-07T06:20:55;100484.97;;;3.80;76.58
57192;BME280;43052;52.588;13.396;2022-12-07T06:23:20;100477.19;;;3.77;76.76
57192;BME280;43052;52.588;13.396;2022-12-07T06:25:46;100488.34;;;3.74;76.73
57192;BME280;43052;52.588;13.396;2022-12-07T06:28:11;100480.63;;;3.78;76.74
57192;BME280;43052;52.588;13.396;2022-12-07T06:30:36;100477.03;;;3.69;76.78
57192;BME280;43052;52.588;13.396;2022-12-07T06:33:01;100485.63;;;3.67;76.97
57192;BME280;43052;52.588;13.396;2022-12-07T06:35:26;100489.94;;;3.68;77.15
57192;BME280;43052;52.588;13.396;2022-12-07T06:37:52;100477.84;;;3.67;77.04
57192;BME280;43052;52.588;13.396;2022-12-07T06:40:17;100476.19;;;3.69;77.08
57192;BME280;43052;52.588;13.396;2022-12-07T06:42:42;100477.03;;;3.69;77.01
57192;BME280;43052;52.588;13.396;2022-12-07T06:45:08;100475.28;;;3.68;77.23
57192;BME280;43052;52.588;13.396;2022-12-07T06:47:33;100481.31;;;3.67;77.20
57192;BME280;43052;52.588;13.396;2022-12-07T06:49:58;100475.28;;;3.67;77.09
57192;BME280;43052;52.588;13.396;2022-12-07T06:52:23;100477.84;;;3.67;77.52
57192;BME280;43052;52.588;13.396;2022-12-07T06:54:49;100479.59;;;3.68;77.43
57192;BME280;43052;52.588;13.396;2022-12-07T06:57:14;100476.19;;;3.70;77.26
57192;BME280;43052;52.588;13.396;2022-12-07T06:59:39;100476.09;;;3.64;77.54
57192;BME280;43052;52.588;13.396;2022-12-07T07:02:04;100468.34;;;3.64;77.37
57192;BME280;43052;52.588;13.396;2022-12-07T07:04:30;100468.44;;;3.70;77.61
57192;BME280;43052;52.588;13.396;2022-12-07T07:06:55;100473.63;;;3.72;77.77
57192;BME280;43052;52.588;13.396;2022-12-07T07:09:20;100468.53;;;3.76;77.30
57192;BME280;43052;52.588;13.396;2022-12-07T07:11:46;100465.00;;;3.71;77.64
57192;BME280;43052;52.588;13.396;2022-12-07T07:14:11;100464.19;;;3.74;77.60
57192;BME280;43052;52.588;13.396;2022-12-07T07:16:36;100466.78;;;3.74;77.76
57192;BME280;43052;52.588;13.396;2022-12-07T07:19:01;100471.88;;;3.71;77.59
57192;BME280;43052;52.588;13.396;2022-12-07T07:21:26;100474.50;;;3.72;77.94
57192;BME280;43052;52.588;13.396;2022-12-07T07:23:52;100470.28;;;3.78;78.15
57192;BME280;43052;52.588;13.396;2022-12-07T07:26:17;100473.84;;;3.83;77.90
57192;BME280;43052;52.588;13.396;2022-12-07T07:28:42;100477.31;;;3.85;77.81
57192;BME280;43052;52.588;13.396;2022-12-07T07:31:07;100468.66;;;3.83;77.98
57192;BME280;43052;52.588;13.396;2022-12-07T07:33:33;100465.09;;;3.78;77.80
57192;BME280;43052;52.588;13.396;2022-12-07T07:35:58;100468.53;;;3.76;77.89
57192;BME280;43052;52.588;13.396;2022-12-07T07:38:23;100461.69;;;3.79;77.87
57192;BME280;43052;52.588;13.396;2022-12-07T07:40:48;100469.53;;;3.85;77.92
57192;BME280;43052;52.588;13.396;2022-12-07T07:43:14;100470.50;;;3.90;77.91
57192;BME280;43052;52.588;13.396;2022-12-07T07:45:39;100472.22;;;3.89;77.77
57192;BME280;43052;52.588;13.396;2022-12-07T07:48:05;100476.44;;;3.84;78.12
57192;BME280;43052;52.588;13.396;2022-12-07T07:50:30;100468.69;;;3.86;77.94
57192;BME280;43052;52.588;13.396;2022-12-07T07:52:57;100477.38;;;3.88;78.22
57192;BME280;43052;52.588;13.396;2022-12-07T07:55:22;100469.59;;;3.88;77.69
57192;BME280;43052;52.588;13.396;2022-12-07T07:57:47;100468.78;;;3.90;77.78
57192;BME280;43052;52.588;13.396;2022-12-07T08:00:14;100478.28;;;3.90;77.70
57192;BME280;43052;52.588;13.396;2022-12-07T08:02:40;100479.22;;;3.95;77.48
57192;BME280;43052;52.588;13.396;2022-12-07T08:05:06;100460.34;;;4.01;77.35
57192;BME280;43052;52.588;13.396;2022-12-07T08:07:31;100477.59;;;4.00;77.32
57192;BME280;43052;52.588;13.396;2022-12-07T08:09:57;100479.38;;;4.06;77.29
57192;BME280;43052;52.588;13.396;2022-12-07T08:12:22;100482.19;;;4.18;77.20
57192;BME280;43052;52.588;13.396;2022-12-07T08:14:47;100488.47;;;4.34;76.99
57192;BME280;43052;52.588;13.396;2022-12-07T08:17:13;100479.81;;;4.34;76.61
57192;BME280;43052;52.588;13.396;2022-12-07T08:19:38;100481.44;;;4.26;76.22
57192;BME280;43052;52.588;13.396;2022-12-07T08:22:03;100486.59;;;4.24;76.75
57192;BME280;43052;52.588;13.396;2022-12-07T08:24:29;100486.56;;;4.22;76.58
57192;BME280;43052;52.588;13.396;2022-12-07T08:26:54;100489.09;;;4.18;76.35
57192;BME280;43052;52.588;13.396;2022-12-07T08:29:19;100491.56;;;4.12;76.14
57192;BME280;43052;52.588;13.396;2022-12-07T08:31:44;100492.38;;;4.09;76.00
57192;BME280;43052;52.588;13.396;2022-12-07T08:34:10;100494.13;;;4.08;76.36
57192;BME280;43052;52.588;13.396;2022-12-07T08:36:36;100496.69;;;4.08;76.46
57192;BME280;43052;52.588;13.396;2022-12-07T08:39:01;100496.78;;;4.15;76.31
57192;BME280;43052;52.588;13.396;2022-12-07T08:41:27;100498.53;;;4.16;76.40
57192;BME280;43052;52.588;13.396;2022-12-07T08:43:52;100498.63;;;4.20;75.69
57192;BME280;43052;52.588;13.396;2022-12-07T08:46:21;100503.72;;;4.16;75.40
57192;BME280;43052;52.588;13.396;2022-12-07T08:48:55;100506.25;;;4.13;75.55
57192;BME280;43052;52.588;13.396;2022-12-07T08:51:22;100507.09;;;4.12;75.93
57192;BME280;43052;52.588;13.396;2022-12-07T08:53:50;100510.50;;;4.11;75.55
57192;BME280;43052;52.588;13.396;2022-12-07T08:56:16;100507.09;;;4.12;75.62
57192;BME280;43052;52.588;13.396;2022-12-07T08:58:42;100513.16;;;4.12;75.79
57192;BME280;43052;52.588;13.396;2022-12-07T09:01:07;100509.78;;;4.18;75.63
57192;BME280;43052;52.588;13.396;2022-12-07T09:03:33;100518.47;;;4.21;75.65
57192;BME280;43052;52.588;13.396;2022-12-07T09:05:58;100521.25;;;4.32;75.66
57192;BME280;43052;52.588;13.396;2022-12-07T09:08:28;100525.78;;;4.47;75.59
57192;BME280;43052;52.588;13.396;2022-12-07T09:10:54;100526.88;;;4.62;75.24
57192;BME280;43052;52.588;13.396;2022-12-07T09:13:20;100524.41;;;4.71;74.89
57192;BME280;43052;52.588;13.396;2022-12-07T09:15:45;100514.19;;;4.80;74.38
57192;BME280;43052;52.588;13.396;2022-12-07T09:18:10;100511.78;;;4.93;73.50
57192;BME280;43052;52.588;13.396;2022-12-07T09:20:35;100527.41;;;5.00;73.17
57192;BME280;43052;52.588;13.396;2022-12-07T09:23:01;100523.91;;;4.95;72.18
57192;BME280;43052;52.588;13.396;2022-12-07T09:25:26;100522.75;;;4.76;71.32
57192;BME280;43052;52.588;13.396;2022-12-07T09:27:58;100524.25;;;4.60;71.58
57192;BME280;43052;52.588;13.396;2022-12-07T09:30:23;100531.13;;;4.58;71.26
57192;BME280;43052;52.588;13.396;2022-12-07T09:32:49;100533.72;;;4.57;70.53
57192;BME280;43052;52.588;13.396;2022-12-07T09:35:14;100531.91;;;4.51;71.13
57192;BME280;43052;52.588;13.396;2022-12-07T09:37:39;100532.72;;;4.50;70.20
57192;BME280;43052;52.588;13.396;2022-12-07T09:40:05;100536.16;;;4.47;69.80
57192;BME280;43052;52.588;13.396;2022-12-07T09:42:38;100542.16;;;4.45;70.10
57192;BME280;43052;52.588;13.396;2022-12-07T09:45:14;100536.97;;;4.45;69.31
57192;BME280;43052;52.588;13.396;2022-12-07T09:47:40;100544.69;;;4.42;69.71
57192;BME280;43052;52.588;13.396;2022-12-07T09:50:20;100544.63;;;4.37;69.92
57192;BME280;43052;52.588;13.396;2022-12-07T09:52:47;100539.44;;;4.35;69.80
57192;BME280;43052;52.588;13.396;2022-12-07T09:55:16;100547.94;;;4.30;69.49
57192;BME280;43052;52.588;13.396;2022-12-07T09:57:43;100548.72;;;4.24;69.90
57192;BME280;43052;52.588;13.396;2022-12-07T10:00:18;100543.53;;;4.24;69.72
57192;BME280;43052;52.588;13.396;2022-12-07T10:02:44;100540.94;;;4.24;69.33
57192;BME280;43052;52.588;13.396;2022-12-07T10:05:16;100543.53;;;4.22;69.17
57192;BME280;43052;52.588;13.396;2022-12-07T10:07:43;100548.69;;;4.22;69.23
57192;BME280;43052;52.588;13.396;2022-12-07T10:10:19;100548.72;;;4.26;69.35
57192;BME280;43052;52.588;13.396;2022-12-07T10:13:03;100550.63;;;4.34;69.08
57192;BME280;43052;52.588;13.396;2022-12-07T10:18:17;100546.59;;;4.53;68.96
57192;BME280;43052;52.588;13.396;2022-12-07T10:20:48;100546.88;;;4.72;68.84
57192;BME280;43052;52.588;13.396;2022-12-07T10:23:17;100554.88;;;4.88;68.27
57192;BME280;43052;52.588;13.396;2022-12-07T10:25:42;100547.25;;;4.98;67.33
57192;BME280;43052;52.588;13.396;2022-12-07T10:30:48;100541.88;;;5.49;66.54
57192;BME280;43052;52.588;13.396;2022-12-07T10:33:29;100548.22;;;5.76;65.83
57192;BME280;43052;52.588;13.396;2022-12-07T10:35:54;100552.72;;;5.92;65.65
57192;BME280;43052;52.588;13.396;2022-12-07T10:38:20;100551.88;;;5.95;65.43
57192;BME280;43052;52.588;13.396;2022-12-07T10:40:46;100550.91;;;5.85;64.88
57192;BME280;43052;52.588;13.396;2022-12-07T10:45:57;100549.22;;;5.89;63.59
57192;BME280;43052;52.588;13.396;2022-12-07T10:51:55;100544.53;;;6.43;64.10
57192;BME280;43052;52.588;13.396;2022-12-07T10:54:48;100539.31;;;6.40;63.47
57192;BME280;43052;52.588;13.396;2022-12-07T10:57:38;100533.19;;;6.29;63.24
57192;BME280;43052;52.588;13.396;2022-12-07T11:00:18;100535.56;;;6.04;63.56
57192;BME280;43052;52.588;13.396;2022-12-07T11:02:53;100537.94;;;5.85;64.12
57192;BME280;43052;52.588;13.396;2022-12-07T11:05:45;100544.69;;;5.69;64.58
57192;BME280;43052;52.588;13.396;2022-12-07T11:08:34;100541.03;;;5.53;64.92
57192;BME280;43052;52.588;13.396;2022-12-07T11:13:57;100538.09;;;5.24;65.94
57192;BME280;43052;52.588;13.396;2022-12-07T11:19:21;100544.97;;;5.20;65.81
57192;BME280;43052;52.588;13.396;2022-12-07T11:21:57;100538.94;;;5.23;65.91
57192;BME280;43052;52.588;13.396;2022-12-07T11:24:48;100537.25;;;5.25;65.79
57192;BME280;43052;52.588;13.396;2022-12-07T11:27:24;100537.25;;;5.25;65.45
57192;BME280;43052;52.588;13.396;2022-12-07T11:32:57;100522.47;;;5.19;65.88
57192;BME280;43052;52.588;13.396;2022-12-07T11:38:45;100516.19;;;5.01;65.51
57192;BME280;43052;52.588;13.396;2022-12-07T11:41:20;100519.56;;;4.96;65.89
57192;BME280;43052;52.588;13.396;2022-12-07T11:43:57;100523.84;;;4.91;66.35
57192;BME280;43052;52.588;13.396;2022-12-07T11:46:27;100523.91;;;4.97;66.49
57192;BME280;43052;52.588;13.396;2022-12-07T11:49:23;100521.38;;;5.01;66.57
57192;BME280;43052;52.588;13.396;2022-12-07T11:51:54;100512.75;;;5.02;66.09
57192;BME280;43052;52.588;13.396;2022-12-07T11:54:28;100504.03;;;4.96;66.54
57192;BME280;43052;52.588;13.396;2022-12-07T11:56:57;100512.72;;;4.99;66.65
57192;BME280;43052;52.588;13.396;2022-12-07T11:59:36;100510.19;;;5.04;66.79
57192;BME280;43052;52.588;13.396;2022-12-07T12:02:13;100511.03;;;5.03;66.43
57192;BME280;43052;52.588;13.396;2022-12-07T12:04:50;100513.78;;;5.14;66.48
57192;BME280;43052;52.588;13.396;2022-12-07T12:07:22;100507.78;;;5.18;66.84
57192;BME280;43052;52.588;13.396;2022-12-07T12:09:58;100500.03;;;5.21;66.65
57192;BME280;43052;52.588;13.396;2022-12-07T12:16:01;100502.53;;;5.13;67.08
57192;BME280;43052;52.588;13.396;2022-12-07T12:18:42;100483.47;;;5.08;67.23
57192;BME280;43052;52.588;13.396;2022-12-07T12:21:11;100480.88;;;5.08;67.24
57192;BME280;43052;52.588;13.396;2022-12-07T12:23:43;100493.91;;;5.14;67.16
57192;BME280;43052;52.588;13.396;2022-12-07T12:26:24;100495.69;;;5.18;67.12
57192;BME280;43052;52.588;13.396;2022-12-07T12:28:58;100493.94;;;5.17;67.08
57192;BME280;43052;52.588;13.396;2022-12-07T12:33:55;100492.28;;;5.23;67.16
57192;BME280;43052;52.588;13.396;2022-12-07T12:47:03;100484.53;;;5.24;67.82
57192;BME280;43052;52.588;13.396;2022-12-07T12:54:58;100487.81;;;5.11;67.57
57192;BME280;43052;52.588;13.396;2022-12-07T12:57:31;100482.56;;;5.08;67.40
57192;BME280;43052;52.588;13.396;2022-12-07T12:59:58;100485.16;;;5.05;67.92
57192;BME280;43052;52.588;13.396;2022-12-07T13:02:27;100479.91;;;5.01;67.83
57192;BME280;43052;52.588;13.396;2022-12-07T13:13:03;100497.03;;;4.90;67.62
57192;BME280;43052;52.588;13.396;2022-12-07T13:21:40;100483.75;;;4.65;67.99
57192;BME280;43052;52.588;13.396;2022-12-07T13:31:37;100481.78;;;4.47;69.28
57192;BME280;43052;52.588;13.396;2022-12-07T13:34:26;100476.59;;;4.47;69.29
57192;BME280;43052;52.588;13.396;2022-12-07T13:36:50;100484.38;;;4.47;69.20
57192;BME280;43052;52.588;13.396;2022-12-07T13:39:19;100485.22;;;4.48;69.16
57192;BME280;43052;52.588;13.396;2022-12-07T13:41:50;100481.84;;;4.52;69.56
57192;BME280;43052;52.588;13.396;2022-12-07T13:44:17;100479.34;;;4.58;69.66
57192;BME280;43052;52.588;13.396;2022-12-07T13:46:49;100476.78;;;4.61;69.50
57192;BME280;43052;52.588;13.396;2022-12-07T13:49:27;100476.81;;;4.63;69.41
57192;BME280;43052;52.588;13.396;2022-12-07T13:51:54;100479.34;;;4.60;69.30
57192;BME280;43052;52.588;13.396;2022-12-07T13:54:20;100477.59;;;4.59;69.35
57192;BME280;43052;52.588;13.396;2022-12-07T13:56:50;100476.72;;;4.57;68.98
57192;BME280;43052;52.588;13.396;2022-12-07T13:59:19;100475.78;;;4.51;68.89
57192;BME280;43052;52.588;13.396;2022-12-07T14:01:46;100489.50;;;4.46;68.25
57192;BME280;43052;52.588;13.396;2022-12-07T14:04:29;100486.91;;;4.44;68.51
57192;BME280;43052;52.588;13.396;2022-12-07T14:06:54;100493.81;;;4.44;68.28
57192;BME280;43052;52.588;13.396;2022-12-07T14:09:25;100483.38;;;4.39;68.51
57192;BME280;43052;52.588;13.396;2022-12-07T14:11:53;100490.31;;;4.40;68.56
57192;BME280;43052;52.588;13.396;2022-12-07T14:14:25;100489.41;;;4.39;68.37
57192;BME280;43052;52.588;13.396;2022-12-07T14:16:57;100478.97;;;4.33;68.65